createdAt,value
2022-07-30T00:01:39.615Z,5.13
2022-07-30T00:04:29.144Z,5.90
2022-07-30T00:07:18.516Z,5.07
2022-07-30T00:10:09.417Z,6.10
2022-07-30T00:12:57.870Z,5.33
2022-07-30T00:15:46.829Z,5.50
2022-07-30T00:18:35.993Z,4.70
2022-07-30T00:21:36.041Z,5.47
2022-07-30T00:24:27.020Z,5.80
2022-07-30T00:27:15.979Z,4.90
2022-07-30T00:30:06.693Z,5.43
2022-07-30T00:32:55.813Z,5.13
2022-07-30T00:35:45.929Z,4.60
2022-07-30T00:38:35.714Z,5.70
2022-07-30T00:41:24.940Z,4.77
2022-07-30T00:44:13.836Z,4.93
2022-07-30T00:47:03.050Z,4.73
2022-07-30T00:49:52.173Z,4.90
2022-07-30T00:52:42.357Z,5.43
2022-07-30T00:55:31.929Z,5.90
2022-07-30T00:58:20.687Z,5.13
2022-07-30T01:01:10.703Z,5.20
2022-07-30T01:04:00.653Z,5.17
2022-07-30T01:06:50.377Z,4.90
2022-07-30T01:09:39.393Z,5.07
2022-07-30T01:12:29.377Z,5.03
2022-07-30T01:15:18.954Z,5.40
2022-07-30T01:18:12.050Z,5.00
2022-07-30T01:21:07.202Z,5.27
2022-07-30T01:24:06.928Z,5.13
2022-07-30T01:26:57.371Z,4.53
2022-07-30T01:32:39.233Z,5.73
2022-07-30T01:35:31.366Z,4.57
2022-07-30T01:38:24.019Z,4.73
2022-07-30T01:41:15.494Z,4.27
2022-07-30T01:44:06.467Z,4.73
2022-07-30T01:46:56.836Z,5.00
2022-07-30T01:49:48.977Z,4.77
2022-07-30T01:52:39.057Z,4.53
2022-07-30T01:55:33.454Z,4.97
2022-07-30T01:58:26.874Z,4.67
2022-07-30T02:01:17.831Z,4.93
2022-07-30T02:04:08.218Z,4.77
2022-07-30T02:07:04.492Z,5.23
2022-07-30T02:09:58.826Z,4.40
2022-07-30T02:12:54.240Z,4.50
2022-07-30T02:15:50.428Z,4.37
2022-07-30T02:18:48.853Z,4.23
2022-07-30T02:21:41.361Z,6.80
2022-07-30T02:24:43.031Z,5.20
2022-07-30T02:27:35.616Z,5.37
2022-07-30T02:30:31.361Z,4.83
2022-07-30T02:33:26.652Z,4.97
2022-07-30T02:36:18.829Z,4.50
2022-07-30T02:39:10.023Z,4.40
2022-07-30T02:42:00.481Z,4.50
2022-07-30T02:44:52.680Z,4.70
2022-07-30T02:47:43.511Z,4.30
2022-07-30T02:50:33.798Z,4.73
2022-07-30T02:53:24.564Z,5.13
2022-07-30T02:56:15.534Z,4.70
2022-07-30T02:59:06.310Z,5.03
2022-07-30T03:01:57.020Z,5.25
2022-07-30T03:04:49.125Z,4.67
2022-07-30T03:07:40.864Z,5.13
2022-07-30T03:10:31.779Z,4.83
2022-07-30T03:13:24.079Z,5.33
2022-07-30T03:19:05.132Z,4.60
2022-07-30T03:24:47.840Z,4.67
2022-07-30T03:27:38.582Z,5.10
2022-07-30T03:30:28.883Z,4.97
2022-07-30T03:33:18.411Z,5.03
2022-07-30T03:36:12.384Z,5.08
2022-07-30T03:39:02.269Z,4.77
2022-07-30T03:41:53.238Z,5.43
2022-07-30T03:44:45.335Z,5.47
2022-07-30T03:47:37.365Z,4.73
2022-07-30T03:50:27.733Z,5.60
2022-07-30T03:53:19.479Z,5.43
2022-07-30T03:56:42.569Z,5.40
2022-07-30T03:59:54.006Z,5.07
2022-07-30T04:02:44.758Z,4.80
2022-07-30T04:05:53.227Z,5.53
2022-07-30T04:08:42.391Z,5.40
2022-07-30T04:11:41.241Z,5.70
2022-07-30T04:14:41.726Z,5.70
2022-07-30T04:17:35.631Z,5.60
2022-07-30T04:20:31.410Z,5.63
2022-07-30T04:23:21.858Z,5.50
2022-07-30T04:26:12.197Z,5.77
2022-07-30T04:29:03.408Z,6.40
2022-07-30T04:31:54.631Z,5.20
2022-07-30T04:35:06.972Z,5.80
2022-07-30T04:38:30.910Z,5.43
2022-07-30T04:41:19.672Z,5.70
2022-07-30T04:44:34.230Z,6.10
2022-07-30T04:47:48.173Z,5.97
2022-07-30T04:50:46.753Z,5.83
2022-07-30T04:53:38.788Z,5.60
2022-07-30T04:56:29.388Z,5.67
2022-07-30T04:59:21.622Z,5.70
2022-07-30T05:02:11.727Z,5.87
2022-07-30T05:05:03.272Z,6.90
2022-07-30T05:07:52.814Z,5.70
2022-07-30T05:10:43.611Z,6.10
2022-07-30T05:13:34.741Z,6.07
2022-07-30T05:16:29.979Z,5.83
2022-07-30T05:19:20.524Z,6.10
2022-07-30T05:22:09.489Z,5.77
2022-07-30T05:25:00.108Z,5.83
2022-07-30T05:27:48.635Z,5.97
2022-07-30T05:30:38.823Z,5.83
2022-07-30T05:33:42.608Z,5.63
2022-07-30T05:36:34.562Z,5.90
2022-07-30T05:39:22.907Z,6.03
2022-07-30T05:42:14.630Z,6.10
2022-07-30T05:45:11.683Z,5.43
2022-07-30T05:48:01.667Z,6.03
2022-07-30T05:50:50.628Z,6.63
2022-07-30T05:53:40.609Z,7.33
2022-07-30T05:56:29.569Z,6.47
2022-07-30T05:59:25.083Z,6.17
2022-07-30T06:02:35.344Z,6.93
2022-07-30T06:05:47.242Z,6.20
2022-07-30T06:08:36.612Z,6.50
2022-07-30T06:11:26.186Z,5.87
2022-07-30T06:14:16.170Z,5.37
2022-07-30T06:17:04.923Z,5.27
2022-07-30T06:20:15.453Z,5.70
2022-07-30T06:23:12.951Z,5.60
2022-07-30T06:26:22.185Z,5.73
2022-07-30T06:29:11.709Z,5.27
2022-07-30T06:32:02.543Z,5.22
2022-07-30T06:34:59.610Z,4.93
2022-07-30T06:38:05.665Z,4.70
2022-07-30T06:41:02.560Z,6.03
2022-07-30T06:44:12.267Z,5.70
2022-07-30T06:47:25.849Z,5.13
2022-07-30T06:50:15.224Z,5.40
2022-07-30T06:53:04.750Z,5.80
2022-07-30T06:56:14.396Z,4.90
2022-07-30T06:59:11.043Z,5.77
2022-07-30T07:02:27.362Z,5.43
2022-07-30T07:05:30.112Z,5.50
2022-07-30T07:08:18.781Z,4.87
2022-07-30T07:11:11.625Z,5.00
2022-07-30T07:14:07.139Z,5.40
2022-07-30T07:16:57.369Z,5.13
2022-07-30T07:20:07.742Z,4.37
2022-07-30T07:23:06.580Z,5.20
2022-07-30T07:25:58.620Z,4.77
2022-07-30T07:28:49.428Z,4.93
2022-07-30T07:32:05.759Z,4.70
2022-07-30T07:34:47.409Z,4.70
2022-07-30T07:37:37.189Z,4.40
2022-07-30T07:40:26.764Z,4.50
2022-07-30T07:43:15.935Z,4.80
2022-07-30T07:46:04.951Z,4.17
2022-07-30T07:48:56.138Z,4.50
2022-07-30T07:51:54.089Z,4.50
2022-07-30T07:54:45.288Z,4.63
2022-07-30T07:57:39.822Z,4.40
2022-07-30T08:00:30.375Z,4.20
2022-07-30T08:03:19.950Z,4.43
2022-07-30T08:06:12.018Z,4.50
2022-07-30T08:09:43.847Z,4.00
2022-07-30T08:12:54.008Z,4.33
2022-07-30T08:16:03.669Z,4.50
2022-07-30T08:19:12.067Z,3.97
2022-07-30T08:22:03.688Z,3.93
2022-07-30T08:24:52.448Z,4.43
2022-07-30T08:27:41.201Z,4.33
2022-07-30T08:30:32.300Z,3.90
2022-07-30T08:33:21.989Z,4.10
2022-07-30T08:36:16.683Z,4.13
2022-07-30T08:39:06.806Z,4.07
2022-07-30T08:41:58.087Z,4.17
2022-07-30T08:44:48.481Z,3.80
2022-07-30T08:50:26.587Z,3.80
2022-07-30T08:53:36.460Z,3.63
2022-07-30T08:56:26.849Z,3.50
2022-07-30T08:59:17.115Z,3.70
2022-07-30T09:02:10.222Z,3.67
2022-07-30T09:05:09.711Z,3.50
2022-07-30T09:07:58.667Z,4.33
2022-07-30T09:10:52.759Z,4.23
2022-07-30T09:13:44.202Z,3.30
2022-07-30T09:16:34.765Z,3.83
2022-07-30T09:19:23.517Z,3.80
2022-07-30T09:22:14.733Z,4.03
2022-07-30T09:25:39.656Z,3.67
2022-07-30T09:29:15.148Z,3.87
2022-07-30T09:32:22.604Z,3.30
2022-07-30T09:35:29.814Z,3.40
2022-07-30T09:38:47.878Z,3.40
2022-07-30T09:42:18.448Z,3.73
2022-07-30T09:45:10.327Z,4.93
2022-07-30T09:48:00.006Z,3.75
2022-07-30T09:50:50.538Z,4.20
2022-07-30T09:53:54.564Z,3.53
2022-07-30T09:56:53.988Z,3.83
2022-07-30T09:59:43.441Z,3.90
2022-07-30T10:02:34.154Z,3.60
2022-07-30T10:05:55.361Z,3.30
2022-07-30T10:08:46.550Z,3.63
2022-07-30T10:11:39.264Z,3.77
2022-07-30T10:14:33.820Z,3.10
2022-07-30T10:17:34.593Z,3.43
2022-07-30T10:20:52.408Z,3.30
2022-07-30T10:24:02.713Z,4.47
2022-07-30T10:27:32.196Z,3.67
2022-07-30T10:30:49.453Z,7.57
2022-07-30T10:33:40.477Z,5.23
2022-07-30T10:36:31.191Z,3.63
2022-07-30T10:39:28.549Z,3.60
2022-07-30T10:42:37.172Z,3.13
2022-07-30T10:45:35.343Z,3.33
2022-07-30T10:48:34.813Z,3.60
2022-07-30T10:51:42.557Z,3.70
2022-07-30T10:54:53.841Z,3.40
2022-07-30T10:58:00.950Z,3.50
2022-07-30T11:01:18.163Z,3.50
2022-07-30T11:04:21.447Z,3.50
2022-07-30T11:07:31.077Z,3.17
2022-07-30T11:10:40.751Z,2.93
2022-07-30T11:13:53.513Z,3.17
2022-07-30T11:17:02.787Z,3.30
2022-07-30T11:20:15.327Z,3.27
2022-07-30T11:26:50.050Z,3.20
2022-07-30T11:29:50.832Z,3.30
2022-07-30T11:32:39.764Z,3.00
2022-07-30T11:35:34.580Z,3.20
2022-07-30T11:38:24.432Z,3.40
2022-07-30T11:41:14.213Z,3.27
2022-07-30T11:44:27.959Z,3.00
2022-07-30T11:47:18.464Z,3.10
2022-07-30T11:50:17.546Z,3.27
2022-07-30T11:53:08.348Z,3.10
2022-07-30T11:55:58.656Z,3.47
2022-07-30T11:58:47.865Z,3.90
2022-07-30T12:01:37.147Z,3.40
2022-07-30T12:04:26.036Z,4.20
2022-07-30T12:07:22.166Z,3.20
2022-07-30T12:10:26.946Z,3.07
2022-07-30T12:13:17.902Z,2.80
2022-07-30T12:16:11.486Z,3.00
2022-07-30T12:19:04.650Z,3.00
2022-07-30T12:21:58.821Z,3.17
2022-07-30T12:24:48.901Z,3.70
2022-07-30T12:27:39.087Z,3.47
2022-07-30T12:30:28.872Z,2.80
2022-07-30T12:33:18.445Z,2.90
2022-07-30T12:36:07.670Z,3.17
2022-07-30T12:38:57.634Z,3.23
2022-07-30T12:41:48.480Z,2.83
2022-07-30T12:44:39.539Z,3.47
2022-07-30T12:47:29.664Z,3.30
2022-07-30T12:50:19.167Z,3.10
2022-07-30T12:53:09.155Z,3.67
2022-07-30T12:56:13.431Z,3.70
2022-07-30T12:59:02.845Z,3.30
2022-07-30T13:01:52.072Z,3.67
2022-07-30T13:05:09.790Z,2.97
2022-07-30T13:08:01.747Z,3.40
2022-07-30T13:10:59.372Z,3.10
2022-07-30T13:13:48.815Z,3.20
2022-07-30T13:16:39.354Z,3.03
2022-07-30T13:19:28.604Z,3.15
2022-07-30T13:22:17.746Z,3.27
2022-07-30T13:25:10.280Z,3.00
2022-07-30T13:27:58.940Z,3.00
2022-07-30T13:30:48.721Z,3.23
2022-07-30T13:33:37.889Z,3.20
2022-07-30T13:36:26.849Z,2.80
2022-07-30T13:39:15.904Z,3.20
2022-07-30T13:42:04.766Z,3.00
2022-07-30T13:44:53.524Z,3.10
2022-07-30T13:47:43.307Z,2.70
2022-07-30T13:50:32.467Z,2.90
2022-07-30T13:53:21.019Z,2.93
2022-07-30T13:56:12.883Z,3.30
2022-07-30T13:59:02.422Z,2.80
2022-07-30T14:01:51.399Z,2.80
2022-07-30T14:04:40.137Z,3.00
2022-07-30T14:07:29.387Z,2.60
2022-07-30T14:10:18.261Z,3.13
2022-07-30T14:13:09.274Z,2.47
2022-07-30T14:15:58.236Z,2.73
2022-07-30T14:18:47.196Z,2.70
2022-07-30T14:21:36.772Z,3.07
2022-07-30T14:24:26.001Z,3.07
2022-07-30T14:27:16.347Z,2.67
2022-07-30T14:30:09.359Z,3.08
2022-07-30T14:33:04.474Z,2.70
2022-07-30T14:35:53.451Z,2.73
2022-07-30T14:38:42.616Z,3.00
2022-07-30T14:41:31.780Z,2.60
2022-07-30T14:44:20.127Z,3.23
2022-07-30T14:47:09.032Z,2.80
2022-07-30T14:49:58.484Z,3.93
2022-07-30T14:52:48.329Z,3.00
2022-07-30T14:55:37.197Z,3.00
2022-07-30T14:58:26.370Z,3.30
2022-07-30T15:01:16.617Z,2.87
2022-07-30T15:04:09.018Z,2.77
2022-07-30T15:06:58.478Z,2.70
2022-07-30T15:09:47.742Z,3.45
2022-07-30T15:12:36.509Z,2.90
2022-07-30T15:15:26.475Z,2.80
2022-07-30T15:18:20.171Z,3.20
2022-07-30T15:21:08.857Z,3.00
2022-07-30T15:23:58.684Z,2.93
2022-07-30T15:26:48.459Z,2.80
2022-07-30T15:29:37.215Z,3.10
2022-07-30T15:32:26.175Z,2.97
2022-07-30T15:35:15.546Z,3.07
2022-07-30T15:38:05.119Z,3.10
2022-07-30T15:40:55.835Z,2.90
2022-07-30T15:43:45.097Z,3.30
2022-07-30T15:46:34.522Z,3.10
2022-07-30T15:49:23.299Z,3.10
2022-07-30T15:52:12.797Z,2.90
2022-07-30T15:55:01.959Z,3.33
2022-07-30T15:57:51.030Z,3.07
2022-07-30T16:00:39.877Z,3.13
2022-07-30T16:03:30.473Z,3.08
2022-07-30T16:06:19.348Z,3.13
2022-07-30T16:09:09.012Z,3.27
2022-07-30T16:11:58.644Z,3.10
2022-07-30T16:14:47.341Z,3.23
2022-07-30T16:17:37.304Z,3.37
2022-07-30T16:20:26.319Z,3.50
2022-07-30T16:23:20.831Z,3.70
2022-07-30T16:26:11.456Z,3.17
2022-07-30T16:29:01.156Z,3.60
2022-07-30T16:31:49.908Z,3.27
2022-07-30T16:34:39.074Z,4.17
2022-07-30T16:37:27.833Z,3.50
2022-07-30T16:40:16.793Z,3.30
2022-07-30T16:43:07.256Z,3.90
2022-07-30T16:45:56.352Z,4.37
2022-07-30T16:48:45.491Z,3.93
2022-07-30T16:51:34.887Z,3.83
2022-07-30T16:54:24.274Z,4.90
2022-07-30T16:57:13.020Z,4.10
2022-07-30T17:00:02.386Z,4.20
2022-07-30T17:02:51.552Z,4.23
2022-07-30T17:05:45.153Z,4.03
2022-07-30T17:08:34.181Z,3.97
2022-07-30T17:11:47.143Z,5.10
2022-07-30T17:14:33.199Z,4.37
2022-07-30T17:17:22.771Z,4.40
2022-07-30T17:20:14.135Z,4.73
2022-07-30T17:23:04.286Z,4.33
2022-07-30T17:25:53.338Z,4.70
2022-07-30T17:28:42.506Z,4.40
2022-07-30T17:31:31.258Z,5.10
2022-07-30T17:34:20.271Z,4.93
2022-07-30T17:37:09.383Z,5.60
2022-07-30T17:40:26.620Z,5.10
2022-07-30T17:43:08.199Z,5.13
2022-07-30T17:45:57.362Z,5.50
2022-07-30T17:48:46.617Z,5.43
2022-07-30T17:51:36.102Z,5.33
2022-07-30T17:54:24.653Z,6.10
2022-07-30T17:57:14.896Z,6.10
2022-07-30T18:00:04.417Z,5.72
2022-07-30T18:02:53.787Z,4.90
2022-07-30T18:05:43.563Z,4.83
2022-07-30T18:08:34.140Z,4.83
2022-07-30T18:14:11.192Z,5.60
2022-07-30T18:17:00.229Z,5.23
2022-07-30T18:19:49.188Z,5.40
2022-07-30T18:25:29.977Z,5.27
2022-07-30T18:28:39.006Z,5.43
2022-07-30T18:31:29.268Z,5.43
2022-07-30T18:34:18.159Z,5.60
2022-07-30T18:37:07.115Z,5.27
2022-07-30T18:39:55.876Z,5.40
2022-07-30T18:42:45.241Z,5.73
2022-07-30T18:45:37.073Z,5.50
2022-07-30T18:48:26.748Z,5.00
2022-07-30T18:51:18.144Z,5.20
2022-07-30T18:54:07.228Z,5.63
2022-07-30T18:56:55.782Z,5.33
2022-07-30T18:59:44.751Z,5.47
2022-07-30T19:02:33.290Z,5.27
2022-07-30T19:05:22.074Z,5.47
2022-07-30T19:08:11.620Z,4.63
2022-07-30T19:11:01.401Z,4.70
2022-07-30T19:13:49.952Z,5.00
2022-07-30T19:16:39.118Z,4.90
2022-07-30T19:19:28.079Z,5.30
2022-07-30T19:22:16.630Z,5.17
2022-07-30T19:25:08.115Z,5.00
2022-07-30T19:27:56.800Z,5.45
2022-07-30T19:30:46.169Z,5.17
2022-07-30T19:33:34.893Z,4.93
2022-07-30T19:36:23.737Z,5.23
2022-07-30T19:39:21.199Z,4.90
2022-07-30T19:42:12.005Z,5.77
2022-07-30T19:45:11.128Z,4.83
2022-07-30T19:48:01.231Z,5.50
2022-07-30T19:50:50.398Z,5.20
2022-07-30T19:53:39.284Z,4.53
2022-07-30T19:56:28.990Z,5.13
2022-07-30T19:59:19.076Z,5.47
2022-07-30T20:02:27.742Z,5.47
2022-07-30T20:05:17.522Z,4.83
2022-07-30T20:08:08.643Z,5.80
2022-07-30T20:10:58.930Z,4.93
2022-07-30T20:13:48.195Z,4.90
2022-07-30T20:16:36.850Z,6.30
2022-07-30T20:19:26.009Z,5.50
2022-07-30T20:22:24.801Z,5.40
2022-07-30T20:25:13.761Z,5.57
2022-07-30T20:28:03.335Z,5.53
2022-07-30T20:30:52.296Z,5.00
2022-07-30T20:33:41.178Z,5.57
2022-07-30T20:36:30.254Z,5.50
2022-07-30T20:39:19.913Z,5.80
2022-07-30T20:42:11.581Z,5.50
2022-07-30T20:45:00.586Z,5.87
2022-07-30T20:47:52.566Z,5.58
2022-07-30T20:50:42.179Z,5.67
2022-07-30T20:53:33.485Z,5.43
2022-07-30T20:56:25.637Z,5.40
2022-07-30T20:59:14.598Z,5.53
2022-07-30T21:02:04.575Z,5.43
2022-07-30T21:04:59.395Z,5.53
2022-07-30T21:07:52.805Z,5.80
2022-07-30T21:10:44.714Z,5.80
2022-07-30T21:13:35.171Z,5.47
2022-07-30T21:16:26.308Z,5.47
2022-07-30T21:19:17.232Z,5.73
2022-07-30T21:22:07.993Z,5.43
2022-07-30T21:24:56.824Z,5.40
2022-07-30T21:27:46.203Z,5.17
2022-07-30T21:30:36.511Z,5.47
2022-07-30T21:33:26.982Z,5.83
2022-07-30T21:36:24.971Z,6.30
2022-07-30T21:39:14.608Z,5.50
2022-07-30T21:42:03.676Z,9.20
2022-07-30T21:44:52.778Z,7.27
2022-07-30T21:47:41.737Z,7.13
2022-07-30T21:50:38.079Z,7.83
2022-07-30T21:53:44.655Z,8.40
2022-07-30T21:56:34.631Z,10.93
2022-07-30T21:59:30.552Z,6.93
2022-07-30T22:02:20.446Z,6.57
2022-07-30T22:05:12.845Z,6.12
2022-07-30T22:08:02.352Z,6.57
2022-07-30T22:10:52.700Z,6.10
2022-07-30T22:13:51.205Z,6.20
2022-07-30T22:16:46.132Z,5.37
2022-07-30T22:19:35.760Z,5.33
2022-07-30T22:22:27.163Z,5.60
2022-07-30T22:25:18.027Z,4.43
2022-07-30T22:28:07.391Z,4.80
2022-07-30T22:30:56.970Z,4.77
2022-07-30T22:33:46.135Z,4.30
2022-07-30T22:36:34.757Z,3.90
2022-07-30T22:39:23.861Z,3.60
2022-07-30T22:42:24.562Z,3.80
2022-07-30T22:45:15.493Z,3.70
2022-07-30T22:48:10.046Z,4.07
2022-07-30T22:51:00.172Z,4.30
2022-07-30T22:54:02.986Z,3.90
2022-07-30T22:57:03.985Z,4.10
2022-07-30T22:59:58.171Z,4.53
2022-07-30T23:02:50.827Z,4.87
2022-07-30T23:05:40.024Z,5.03
2022-07-30T23:08:32.023Z,4.43
2022-07-30T23:11:21.201Z,5.13
2022-07-30T23:14:13.010Z,5.17
2022-07-30T23:17:02.913Z,5.13
2022-07-30T23:19:52.166Z,4.93
2022-07-30T23:22:41.458Z,5.17
2022-07-30T23:25:34.560Z,5.50
2022-07-30T23:28:28.470Z,5.47
2022-07-30T23:31:17.637Z,5.30
2022-07-30T23:34:06.798Z,5.60
2022-07-30T23:36:55.758Z,4.93
2022-07-30T23:39:44.512Z,5.60
2022-07-30T23:42:34.088Z,5.00
2022-07-30T23:45:22.637Z,5.10
2022-07-30T23:48:12.005Z,5.23
2022-07-30T23:51:01.376Z,5.60
2022-07-30T23:53:51.582Z,5.63
2022-07-30T23:56:43.185Z,5.57
2022-07-30T23:59:40.591Z,5.30
